Ashville, Ohio
Current Conditions -  °F | °C
As of 12:35 PM on Saturday 25 Oct 2014 (Local Time) from KLCK Reporting Station
Broken Clouds Broken Clouds  
Wind Chill: 64°   Ceiling: 3000
Heat Index: 64°   Visibility: 10mi
Dew Point: 52°   Wind: 16mph
Humidity: 67%   Direction: 220°SW
Pressure: 29.92"   Gusts: NA
Location:  39.72°N, 82.95°W
Report Text: KLCK 251635Z AUTO 22014KT 10SM BKN030 BKN035 18/11 A2992 RMK AO2 T01750113
Loading
Personal Weather Stations






























Interactive Weather Map
Tropical Storm Tracking
New forecast layout! Learn more

10-Day Weather Forecast

Advertisements
Track Severe Weather on mobile